Messwerte Atqasuk

Temperatur

Temperatur
°C
1573466400 1.00 1.00 -6
1573470000 2.00 2.00 -8
1573473600 3.00 3.00 -7
1573477200 4.00 4.00 -6
1573480800 5.00 5.00 -6
1573484400 6.00 6.00 -4
1573488000 7.00 7.00 -3
1573491600 8.00 8.00 -4
1573495200 9.00 9.00 -4
1573498800 10.00 10.00 -4
1573502400 11.00 11.00 -4
1573506000 12.00 12.00
1573509600 13.00 13.00
1573513200 14.00 14.00 -6
1573516800 15.00 15.00 -6
1573520400 16.00 16.00
1573524000 17.00 17.00 -6
1573527600 18.00 18.00
1573531200 19.00 19.00 -7
1573534800 20.00 20.00 -8
1573538400 21.00 21.00 -9
1573542000 22.00 22.00 -9
1573545600 23.00 23.00 -10
1573549200 0.00 0.00 -11

Aktuellste Messwerte

Wettercharakter
Wetter: freundlich
Temperatur
-12 °C
Feuchtigkeit
85 %
Wind
30 km/hWindrichtung: Ost
Luftdruck
1029 hPa
Messzeit: 12. November 2019, 2.00Datenquelle: METAR

Weitere Messstationen in der Nähe

Messstation Temperatur Entfernung
Barrow -8 °C 93 km
Wainwright -11 °C 96 km
Nuiqsut -13 °C 242 km
Deadhorse - 243 km
Kuparuk - 293 km
Deadhorse -13 °C 337 km
Cape Lisburne -4 °C 379 km

Wind

Windrichtung Böen Mittelwind
° km/h km/h
1573466400 1.00 0.00 - 1.00 280° 5
1573470000 2.00 1.00 - 2.00 280° 5
1573473600 3.00 2.00 - 3.00 320° 5
1573477200 4.00 3.00 - 4.00 10° 5
1573480800 5.00 4.00 - 5.00 40° 10
1573484400 6.00 5.00 - 6.00 60° 15
1573488000 7.00 6.00 - 7.00 60° 25
1573491600 8.00 7.00 - 8.00 70° 30
1573495200 9.00 8.00 - 9.00 60° 25
1573498800 10.00 9.00 - 10.00 70° 30
1573502400 11.00 10.00 - 11.00 70° 25
1573506000 12.00 11.00 - 12.00
1573509600 13.00 12.00 - 13.00
1573513200 14.00 13.00 - 14.00 70° 20
1573516800 15.00 14.00 - 15.00 60° 20
1573520400 16.00 15.00 - 16.00
1573524000 17.00 16.00 - 17.00 60° 45 35
1573527600 18.00 17.00 - 18.00
1573531200 19.00 18.00 - 19.00 80° 40
1573534800 20.00 19.00 - 20.00 80° 55 40
1573538400 21.00 20.00 - 21.00 80° 55 40
1573542000 22.00 21.00 - 22.00 80° 45 40
1573545600 23.00 22.00 - 23.00 80° 40
1573549200 0.00 23.00 - 0.00 80° 30

Ihre Wetterstation

Fehlt Ihre Wetterstation auf unserem Portal?

Schreiben Sie an network@meteonews.ch

Klima

Wann ist es am wärmsten? Wann regnet es am wenigsten? Unsere Klimadaten geben Auskunft.